sensor_id;sensor_type;location;lat;lon;timestamp;temperature;humidity
7562;DHT22;3822;48.784;9.174;2023-01-26T00:02:13;4.10;93.40
7562;DHT22;3822;48.784;9.174;2023-01-26T00:04:39;4.10;93.40
7562;DHT22;3822;48.784;9.174;2023-01-26T00:07:06;5.20;93.90
7562;DHT22;3822;48.784;9.174;2023-01-26T00:09:32;4.10;93.50
7562;DHT22;3822;48.784;9.174;2023-01-26T00:11:58;4.10;93.50
7562;DHT22;3822;48.784;9.174;2023-01-26T00:14:24;4.10;93.50
7562;DHT22;3822;48.784;9.174;2023-01-26T00:16:51;4.10;93.50
7562;DHT22;3822;48.784;9.174;2023-01-26T00:19:18;4.00;93.50
7562;DHT22;3822;48.784;9.174;2023-01-26T00:21:45;4.00;93.50
7562;DHT22;3822;48.784;9.174;2023-01-26T00:24:11;4.00;93.50
7562;DHT22;3822;48.784;9.174;2023-01-26T00:26:37;4.00;93.50
7562;DHT22;3822;48.784;9.174;2023-01-26T00:29:03;4.00;93.50
7562;DHT22;3822;48.784;9.174;2023-01-26T00:31:29;4.00;93.50
7562;DHT22;3822;48.784;9.174;2023-01-26T00:33:56;3.90;93.50
7562;DHT22;3822;48.784;9.174;2023-01-26T00:36:22;3.90;93.60
7562;DHT22;3822;48.784;9.174;2023-01-26T00:38:49;3.90;93.70
7562;DHT22;3822;48.784;9.174;2023-01-26T00:41:15;3.80;93.70
7562;DHT22;3822;48.784;9.174;2023-01-26T00:44:00;3.80;93.70
7562;DHT22;3822;48.784;9.174;2023-01-26T00:46:26;3.80;93.70
7562;DHT22;3822;48.784;9.174;2023-01-26T00:48:53;3.80;93.70
7562;DHT22;3822;48.784;9.174;2023-01-26T00:51:19;3.90;93.80
7562;DHT22;3822;48.784;9.174;2023-01-26T00:53:45;3.90;93.80
7562;DHT22;3822;48.784;9.174;2023-01-26T00:56:12;3.90;93.80
7562;DHT22;3822;48.784;9.174;2023-01-26T00:58:39;3.90;93.80
7562;DHT22;3822;48.784;9.174;2023-01-26T01:01:05;3.20;93.50
7562;DHT22;3822;48.784;9.174;2023-01-26T01:03:33;3.90;93.80
7562;DHT22;3822;48.784;9.174;2023-01-26T01:05:59;4.00;93.80
7562;DHT22;3822;48.784;9.174;2023-01-26T01:08:27;4.00;93.80
7562;DHT22;3822;48.784;9.174;2023-01-26T01:11:03;4.00;93.80
7562;DHT22;3822;48.784;9.174;2023-01-26T01:13:30;4.10;93.80
7562;DHT22;3822;48.784;9.174;2023-01-26T01:15:57;4.00;93.70
7562;DHT22;3822;48.784;9.174;2023-01-26T01:18:23;4.00;93.70
7562;DHT22;3822;48.784;9.174;2023-01-26T01:20:49;4.00;93.70
7562;DHT22;3822;48.784;9.174;2023-01-26T01:23:16;4.00;93.80
7562;DHT22;3822;48.784;9.174;2023-01-26T01:25:42;4.00;93.80
7562;DHT22;3822;48.784;9.174;2023-01-26T01:28:08;4.00;93.80
7562;DHT22;3822;48.784;9.174;2023-01-26T01:30:36;4.00;93.80
7562;DHT22;3822;48.784;9.174;2023-01-26T01:33:02;4.10;93.80
7562;DHT22;3822;48.784;9.174;2023-01-26T01:35:29;4.00;93.80
7562;DHT22;3822;48.784;9.174;2023-01-26T01:37:55;4.00;93.80
7562;DHT22;3822;48.784;9.174;2023-01-26T01:40:21;4.00;93.80
7562;DHT22;3822;48.784;9.174;2023-01-26T01:42:48;4.00;93.70
7562;DHT22;3822;48.784;9.174;2023-01-26T01:45:37;4.80;94.10
7562;DHT22;3822;48.784;9.174;2023-01-26T01:48:03;4.00;93.80
7562;DHT22;3822;48.784;9.174;2023-01-26T01:50:31;4.00;93.70
7562;DHT22;3822;48.784;9.174;2023-01-26T01:53:01;4.00;93.80
7562;DHT22;3822;48.784;9.174;2023-01-26T01:55:28;4.00;93.70
7562;DHT22;3822;48.784;9.174;2023-01-26T01:57:54;4.00;93.70
7562;DHT22;3822;48.784;9.174;2023-01-26T02:00:25;4.00;93.70
7562;DHT22;3822;48.784;9.174;2023-01-26T02:02:53;4.00;93.70
7562;DHT22;3822;48.784;9.174;2023-01-26T02:05:50;4.00;93.80
7562;DHT22;3822;48.784;9.174;2023-01-26T02:08:36;3.90;93.80
7562;DHT22;3822;48.784;9.174;2023-01-26T02:11:08;3.90;93.80
7562;DHT22;3822;48.784;9.174;2023-01-26T02:13:36;3.90;93.80
7562;DHT22;3822;48.784;9.174;2023-01-26T02:16:03;3.90;93.80
7562;DHT22;3822;48.784;9.174;2023-01-26T02:18:30;3.90;93.80
7562;DHT22;3822;48.784;9.174;2023-01-26T02:21:00;3.90;93.90
7562;DHT22;3822;48.784;9.174;2023-01-26T02:26:17;3.90;93.80
7562;DHT22;3822;48.784;9.174;2023-01-26T02:28:46;3.90;93.80
7562;DHT22;3822;48.784;9.174;2023-01-26T02:31:13;3.90;93.80
7562;DHT22;3822;48.784;9.174;2023-01-26T02:33:40;3.90;93.90
7562;DHT22;3822;48.784;9.174;2023-01-26T02:36:06;3.90;93.90
7562;DHT22;3822;48.784;9.174;2023-01-26T02:38:38;3.90;93.90
7562;DHT22;3822;48.784;9.174;2023-01-26T02:41:07;3.80;93.90
7562;DHT22;3822;48.784;9.174;2023-01-26T02:43:35;3.90;93.90
7562;DHT22;3822;48.784;9.174;2023-01-26T02:46:02;3.80;93.90
7562;DHT22;3822;48.784;9.174;2023-01-26T02:48:29;3.80;94.00
7562;DHT22;3822;48.784;9.174;2023-01-26T02:51:13;3.80;94.10
7562;DHT22;3822;48.784;9.174;2023-01-26T02:53:40;3.60;94.20
7562;DHT22;3822;48.784;9.174;2023-01-26T02:56:06;3.50;94.20
7562;DHT22;3822;48.784;9.174;2023-01-26T02:58:32;3.50;94.30
7562;DHT22;3822;48.784;9.174;2023-01-26T03:00:59;3.50;94.30
7562;DHT22;3822;48.784;9.174;2023-01-26T03:03:26;3.50;94.40
7562;DHT22;3822;48.784;9.174;2023-01-26T03:06:09;3.50;94.50
7562;DHT22;3822;48.784;9.174;2023-01-26T03:08:37;3.40;94.50
7562;DHT22;3822;48.784;9.174;2023-01-26T03:11:04;3.40;94.60
7562;DHT22;3822;48.784;9.174;2023-01-26T03:13:31;3.40;94.60
7562;DHT22;3822;48.784;9.174;2023-01-26T03:15:57;3.40;94.70
7562;DHT22;3822;48.784;9.174;2023-01-26T03:18:32;3.30;94.60
7562;DHT22;3822;48.784;9.174;2023-01-26T03:21:20;3.30;94.70
7562;DHT22;3822;48.784;9.174;2023-01-26T03:27:08;3.20;94.90
7562;DHT22;3822;48.784;9.174;2023-01-26T03:29:55;3.30;94.90
7562;DHT22;3822;48.784;9.174;2023-01-26T03:32:22;3.30;94.90
7562;DHT22;3822;48.784;9.174;2023-01-26T03:34:49;3.30;94.90
7562;DHT22;3822;48.784;9.174;2023-01-26T03:37:15;3.30;94.80
7562;DHT22;3822;48.784;9.174;2023-01-26T03:39:47;3.40;94.80
7562;DHT22;3822;48.784;9.174;2023-01-26T03:42:33;3.40;94.80
7562;DHT22;3822;48.784;9.174;2023-01-26T03:45:19;3.40;94.80
7562;DHT22;3822;48.784;9.174;2023-01-26T03:48:08;3.40;94.70
7562;DHT22;3822;48.784;9.174;2023-01-26T03:50:55;3.30;94.70
7562;DHT22;3822;48.784;9.174;2023-01-26T03:53:41;3.30;94.70
7562;DHT22;3822;48.784;9.174;2023-01-26T03:56:26;3.40;94.70
7562;DHT22;3822;48.784;9.174;2023-01-26T03:58:57;3.40;94.70
7562;DHT22;3822;48.784;9.174;2023-01-26T04:01:35;3.40;94.70
7562;DHT22;3822;48.784;9.174;2023-01-26T04:04:03;3.40;94.70
7562;DHT22;3822;48.784;9.174;2023-01-26T04:06:50;3.40;94.70
7562;DHT22;3822;48.784;9.174;2023-01-26T04:09:35;3.40;94.60
7562;DHT22;3822;48.784;9.174;2023-01-26T04:12:02;3.40;94.60
7562;DHT22;3822;48.784;9.174;2023-01-26T04:14:29;3.40;94.60
7562;DHT22;3822;48.784;9.174;2023-01-26T04:17:14;3.40;94.60
7562;DHT22;3822;48.784;9.174;2023-01-26T04:19:59;3.40;94.60
7562;DHT22;3822;48.784;9.174;2023-01-26T04:22:44;3.40;94.60
7562;DHT22;3822;48.784;9.174;2023-01-26T04:25:11;3.40;94.60
7562;DHT22;3822;48.784;9.174;2023-01-26T04:27:39;3.40;94.60
7562;DHT22;3822;48.784;9.174;2023-01-26T04:30:07;3.80;94.80
7562;DHT22;3822;48.784;9.174;2023-01-26T04:32:35;3.40;94.70
7562;DHT22;3822;48.784;9.174;2023-01-26T04:35:03;3.40;94.70
7562;DHT22;3822;48.784;9.174;2023-01-26T04:37:30;3.40;94.70
7562;DHT22;3822;48.784;9.174;2023-01-26T04:39:56;3.40;94.70
7562;DHT22;3822;48.784;9.174;2023-01-26T04:42:24;3.40;94.70
7562;DHT22;3822;48.784;9.174;2023-01-26T04:44:50;3.50;94.70
7562;DHT22;3822;48.784;9.174;2023-01-26T04:47:17;3.50;94.70
7562;DHT22;3822;48.784;9.174;2023-01-26T04:49:44;3.30;94.60
7562;DHT22;3822;48.784;9.174;2023-01-26T04:52:11;3.30;94.70
7562;DHT22;3822;48.784;9.174;2023-01-26T04:54:37;3.30;94.80
7562;DHT22;3822;48.784;9.174;2023-01-26T04:57:04;3.20;94.80
7562;DHT22;3822;48.784;9.174;2023-01-26T04:59:31;3.20;94.80
7562;DHT22;3822;48.784;9.174;2023-01-26T05:01:58;3.10;94.80
7562;DHT22;3822;48.784;9.174;2023-01-26T05:04:24;3.10;94.90
7562;DHT22;3822;48.784;9.174;2023-01-26T05:06:51;3.00;95.00
7562;DHT22;3822;48.784;9.174;2023-01-26T05:09:17;2.90;95.00
7562;DHT22;3822;48.784;9.174;2023-01-26T05:11:43;2.90;95.10
7562;DHT22;3822;48.784;9.174;2023-01-26T05:14:10;2.90;95.10
7562;DHT22;3822;48.784;9.174;2023-01-26T05:16:36;2.90;95.10
7562;DHT22;3822;48.784;9.174;2023-01-26T05:19:02;2.90;95.10
7562;DHT22;3822;48.784;9.174;2023-01-26T05:21:28;2.90;95.10
7562;DHT22;3822;48.784;9.174;2023-01-26T05:23:55;2.80;95.20
7562;DHT22;3822;48.784;9.174;2023-01-26T05:26:21;2.90;95.20
7562;DHT22;3822;48.784;9.174;2023-01-26T05:28:48;3.00;95.20
7562;DHT22;3822;48.784;9.174;2023-01-26T05:31:14;3.00;95.20
7562;DHT22;3822;48.784;9.174;2023-01-26T05:33:41;3.00;95.10
7562;DHT22;3822;48.784;9.174;2023-01-26T05:36:07;3.00;95.00
7562;DHT22;3822;48.784;9.174;2023-01-26T05:38:33;3.00;95.00
7562;DHT22;3822;48.784;9.174;2023-01-26T05:41:00;3.00;95.00
7562;DHT22;3822;48.784;9.174;2023-01-26T05:43:26;3.00;94.90
7562;DHT22;3822;48.784;9.174;2023-01-26T05:45:53;3.00;95.00
7562;DHT22;3822;48.784;9.174;2023-01-26T05:48:19;3.00;94.90
7562;DHT22;3822;48.784;9.174;2023-01-26T05:50:46;3.00;94.90
7562;DHT22;3822;48.784;9.174;2023-01-26T05:53:12;3.00;94.90
7562;DHT22;3822;48.784;9.174;2023-01-26T05:55:39;2.90;94.90
7562;DHT22;3822;48.784;9.174;2023-01-26T05:58:05;2.80;94.90
7562;DHT22;3822;48.784;9.174;2023-01-26T06:00:35;2.80;95.00
7562;DHT22;3822;48.784;9.174;2023-01-26T06:03:01;2.80;95.00
7562;DHT22;3822;48.784;9.174;2023-01-26T06:05:27;2.90;95.00
7562;DHT22;3822;48.784;9.174;2023-01-26T06:07:53;2.90;94.90
7562;DHT22;3822;48.784;9.174;2023-01-26T06:10:20;2.90;95.00
7562;DHT22;3822;48.784;9.174;2023-01-26T06:12:46;2.90;95.00
7562;DHT22;3822;48.784;9.174;2023-01-26T06:15:13;2.90;94.90
7562;DHT22;3822;48.784;9.174;2023-01-26T06:17:40;2.80;94.90
7562;DHT22;3822;48.784;9.174;2023-01-26T06:20:06;2.80;95.00
7562;DHT22;3822;48.784;9.174;2023-01-26T06:22:33;2.80;95.20
7562;DHT22;3822;48.784;9.174;2023-01-26T06:24:59;2.70;95.60
7562;DHT22;3822;48.784;9.174;2023-01-26T06:27:25;2.80;96.00
7562;DHT22;3822;48.784;9.174;2023-01-26T06:29:53;2.80;96.10
7562;DHT22;3822;48.784;9.174;2023-01-26T06:32:19;2.90;96.00
7562;DHT22;3822;48.784;9.174;2023-01-26T06:34:45;2.90;95.80
7562;DHT22;3822;48.784;9.174;2023-01-26T06:37:12;2.90;95.70
7562;DHT22;3822;48.784;9.174;2023-01-26T06:39:40;3.00;95.60
7562;DHT22;3822;48.784;9.174;2023-01-26T06:42:07;3.00;95.50
7562;DHT22;3822;48.784;9.174;2023-01-26T06:44:34;3.00;95.30
7562;DHT22;3822;48.784;9.174;2023-01-26T06:47:00;3.00;95.20
7562;DHT22;3822;48.784;9.174;2023-01-26T06:49:27;2.90;95.10
7562;DHT22;3822;48.784;9.174;2023-01-26T06:51:54;2.90;95.10
7562;DHT22;3822;48.784;9.174;2023-01-26T06:54:24;2.90;95.10
7562;DHT22;3822;48.784;9.174;2023-01-26T06:56:51;2.80;95.00
7562;DHT22;3822;48.784;9.174;2023-01-26T06:59:17;2.90;95.10
7562;DHT22;3822;48.784;9.174;2023-01-26T07:01:44;2.90;95.00
7562;DHT22;3822;48.784;9.174;2023-01-26T07:04:13;2.80;95.00
7562;DHT22;3822;48.784;9.174;2023-01-26T07:06:40;2.80;95.00
7562;DHT22;3822;48.784;9.174;2023-01-26T07:09:07;2.80;95.10
7562;DHT22;3822;48.784;9.174;2023-01-26T07:11:33;2.80;95.00
7562;DHT22;3822;48.784;9.174;2023-01-26T07:13:59;2.70;94.90
7562;DHT22;3822;48.784;9.174;2023-01-26T07:16:26;2.80;95.00
7562;DHT22;3822;48.784;9.174;2023-01-26T07:18:52;2.80;95.00
7562;DHT22;3822;48.784;9.174;2023-01-26T07:21:22;2.80;95.00
7562;DHT22;3822;48.784;9.174;2023-01-26T07:23:48;2.80;94.90
7562;DHT22;3822;48.784;9.174;2023-01-26T07:26:16;2.80;94.90
7562;DHT22;3822;48.784;9.174;2023-01-26T07:28:42;2.70;94.80
7562;DHT22;3822;48.784;9.174;2023-01-26T07:31:09;2.70;94.90
7562;DHT22;3822;48.784;9.174;2023-01-26T07:33:36;2.80;94.90
7562;DHT22;3822;48.784;9.174;2023-01-26T07:36:02;2.80;94.90
7562;DHT22;3822;48.784;9.174;2023-01-26T07:38:29;2.80;94.80
7562;DHT22;3822;48.784;9.174;2023-01-26T07:40:55;2.80;94.80
7562;DHT22;3822;48.784;9.174;2023-01-26T07:43:23;2.90;94.80
7562;DHT22;3822;48.784;9.174;2023-01-26T07:45:50;2.90;94.80
7562;DHT22;3822;48.784;9.174;2023-01-26T07:48:18;3.00;94.80
7562;DHT22;3822;48.784;9.174;2023-01-26T07:50:45;3.00;94.60
7562;DHT22;3822;48.784;9.174;2023-01-26T07:53:12;3.00;94.60
7562;DHT22;3822;48.784;9.174;2023-01-26T07:55:44;3.00;94.60
7562;DHT22;3822;48.784;9.174;2023-01-26T07:58:11;2.90;94.50
7562;DHT22;3822;48.784;9.174;2023-01-26T08:00:37;2.90;94.50
7562;DHT22;3822;48.784;9.174;2023-01-26T08:03:04;2.90;94.60
7562;DHT22;3822;48.784;9.174;2023-01-26T08:05:31;3.00;94.60
7562;DHT22;3822;48.784;9.174;2023-01-26T08:08:01;3.00;94.50
7562;DHT22;3822;48.784;9.174;2023-01-26T08:10:27;3.10;94.50
7562;DHT22;3822;48.784;9.174;2023-01-26T08:12:59;3.10;94.50
7562;DHT22;3822;48.784;9.174;2023-01-26T08:15:26;3.00;94.40
7562;DHT22;3822;48.784;9.174;2023-01-26T08:17:53;3.00;94.70
7562;DHT22;3822;48.784;9.174;2023-01-26T08:20:20;3.10;95.20
7562;DHT22;3822;48.784;9.174;2023-01-26T08:22:46;3.10;95.10
7562;DHT22;3822;48.784;9.174;2023-01-26T08:25:13;3.10;95.00
7562;DHT22;3822;48.784;9.174;2023-01-26T08:27:39;3.10;95.10
7562;DHT22;3822;48.784;9.174;2023-01-26T08:30:05;3.20;95.10
7562;DHT22;3822;48.784;9.174;2023-01-26T08:32:32;3.20;94.80
7562;DHT22;3822;48.784;9.174;2023-01-26T08:34:59;3.20;94.70
7562;DHT22;3822;48.784;9.174;2023-01-26T08:37:25;3.20;94.40
7562;DHT22;3822;48.784;9.174;2023-01-26T08:39:51;3.20;94.10
7562;DHT22;3822;48.784;9.174;2023-01-26T08:42:17;3.10;94.20
7562;DHT22;3822;48.784;9.174;2023-01-26T08:44:44;3.20;94.20
7562;DHT22;3822;48.784;9.174;2023-01-26T08:47:10;3.20;94.10
7562;DHT22;3822;48.784;9.174;2023-01-26T08:49:36;3.20;93.90
7562;DHT22;3822;48.784;9.174;2023-01-26T08:52:02;3.20;94.00
7562;DHT22;3822;48.784;9.174;2023-01-26T08:54:29;3.80;94.20
7562;DHT22;3822;48.784;9.174;2023-01-26T08:56:56;3.20;93.90
7562;DHT22;3822;48.784;9.174;2023-01-26T08:59:22;3.30;93.80
7562;DHT22;3822;48.784;9.174;2023-01-26T09:01:49;3.30;93.80
7562;DHT22;3822;48.784;9.174;2023-01-26T09:04:15;3.30;93.80
7562;DHT22;3822;48.784;9.174;2023-01-26T09:06:41;3.30;93.70
7562;DHT22;3822;48.784;9.174;2023-01-26T09:09:08;3.30;93.70
7562;DHT22;3822;48.784;9.174;2023-01-26T09:11:38;3.30;93.60
7562;DHT22;3822;48.784;9.174;2023-01-26T09:14:05;3.30;93.50
7562;DHT22;3822;48.784;9.174;2023-01-26T09:16:32;4.70;94.00
7562;DHT22;3822;48.784;9.174;2023-01-26T09:18:58;3.30;93.40
7562;DHT22;3822;48.784;9.174;2023-01-26T09:21:24;3.30;93.40
7562;DHT22;3822;48.784;9.174;2023-01-26T09:23:51;3.20;93.20
7562;DHT22;3822;48.784;9.174;2023-01-26T09:26:17;3.10;93.30
7562;DHT22;3822;48.784;9.174;2023-01-26T09:28:43;3.10;93.30
7562;DHT22;3822;48.784;9.174;2023-01-26T09:31:10;3.10;93.30
7562;DHT22;3822;48.784;9.174;2023-01-26T09:33:37;3.10;93.30
7562;DHT22;3822;48.784;9.174;2023-01-26T09:36:04;3.10;93.30
7562;DHT22;3822;48.784;9.174;2023-01-26T09:38:31;3.10;93.30
7562;DHT22;3822;48.784;9.174;2023-01-26T09:43:31;3.10;93.20
7562;DHT22;3822;48.784;9.174;2023-01-26T09:46:04;3.10;93.20
7562;DHT22;3822;48.784;9.174;2023-01-26T09:51:35;3.10;93.10
7562;DHT22;3822;48.784;9.174;2023-01-26T09:56:48;2.90;93.20
7562;DHT22;3822;48.784;9.174;2023-01-26T09:59:21;2.90;93.20
7562;DHT22;3822;48.784;9.174;2023-01-26T10:04:39;2.90;93.20
7562;DHT22;3822;48.784;9.174;2023-01-26T10:07:08;3.00;93.20
7562;DHT22;3822;48.784;9.174;2023-01-26T10:09:37;3.00;93.20
7562;DHT22;3822;48.784;9.174;2023-01-26T10:12:07;3.00;93.20
7562;DHT22;3822;48.784;9.174;2023-01-26T10:14:49;3.00;93.10
7562;DHT22;3822;48.784;9.174;2023-01-26T10:17:32;3.00;93.10
7562;DHT22;3822;48.784;9.174;2023-01-26T10:25:27;2.90;92.90
7562;DHT22;3822;48.784;9.174;2023-01-26T10:27:55;2.90;92.90
7562;DHT22;3822;48.784;9.174;2023-01-26T10:30:23;2.90;92.80
7562;DHT22;3822;48.784;9.174;2023-01-26T10:32:50;2.90;92.80
7562;DHT22;3822;48.784;9.174;2023-01-26T10:35:21;3.00;92.80
7562;DHT22;3822;48.784;9.174;2023-01-26T10:37:51;2.90;92.70
7562;DHT22;3822;48.784;9.174;2023-01-26T10:40:19;3.00;92.70
7562;DHT22;3822;48.784;9.174;2023-01-26T10:42:57;3.00;92.60
7562;DHT22;3822;48.784;9.174;2023-01-26T10:45:30;2.90;92.60
7562;DHT22;3822;48.784;9.174;2023-01-26T10:48:01;3.00;92.60
7562;DHT22;3822;48.784;9.174;2023-01-26T10:50:29;3.00;92.50
7562;DHT22;3822;48.784;9.174;2023-01-26T10:52:57;3.00;92.50
7562;DHT22;3822;48.784;9.174;2023-01-26T10:55:25;3.00;92.50
7562;DHT22;3822;48.784;9.174;2023-01-26T10:57:52;3.00;92.50
7562;DHT22;3822;48.784;9.174;2023-01-26T11:00:25;3.00;92.40
7562;DHT22;3822;48.784;9.174;2023-01-26T11:02:54;3.00;92.40
7562;DHT22;3822;48.784;9.174;2023-01-26T11:05:26;3.10;92.40
7562;DHT22;3822;48.784;9.174;2023-01-26T11:07:53;3.00;92.30
7562;DHT22;3822;48.784;9.174;2023-01-26T11:10:30;3.00;92.20
7562;DHT22;3822;48.784;9.174;2023-01-26T11:13:11;3.10;92.20
7562;DHT22;3822;48.784;9.174;2023-01-26T11:15:38;3.10;92.20
7562;DHT22;3822;48.784;9.174;2023-01-26T11:18:24;3.10;92.20
7562;DHT22;3822;48.784;9.174;2023-01-26T11:20:56;3.10;92.20
7562;DHT22;3822;48.784;9.174;2023-01-26T11:26:38;3.10;92.20
7562;DHT22;3822;48.784;9.174;2023-01-26T11:29:33;3.00;92.20
7562;DHT22;3822;48.784;9.174;2023-01-26T11:34:59;2.90;92.30
7562;DHT22;3822;48.784;9.174;2023-01-26T11:43:03;2.80;92.40
7562;DHT22;3822;48.784;9.174;2023-01-26T11:46:10;2.80;92.50
7562;DHT22;3822;48.784;9.174;2023-01-26T12:00:42;2.50;92.50
7562;DHT22;3822;48.784;9.174;2023-01-26T12:05:54;2.60;92.70
7562;DHT22;3822;48.784;9.174;2023-01-26T12:08:25;2.50;92.50
7562;DHT22;3822;48.784;9.174;2023-01-26T12:13:56;2.60;92.70
7562;DHT22;3822;48.784;9.174;2023-01-26T12:19:38;2.70;92.60
7562;DHT22;3822;48.784;9.174;2023-01-26T12:22:48;2.70;92.50
7562;DHT22;3822;48.784;9.174;2023-01-26T12:25:39;2.70;92.30
7562;DHT22;3822;48.784;9.174;2023-01-26T12:30:33;2.60;92.60
7562;DHT22;3822;48.784;9.174;2023-01-26T12:33:00;2.60;92.30
7562;DHT22;3822;48.784;9.174;2023-01-26T12:36:02;2.60;92.80
7562;DHT22;3822;48.784;9.174;2023-01-26T12:46:49;2.80;93.00
7562;DHT22;3822;48.784;9.174;2023-01-26T12:49:39;2.80;93.00
7562;DHT22;3822;48.784;9.174;2023-01-26T12:52:42;2.90;92.80
7562;DHT22;3822;48.784;9.174;2023-01-26T12:55:19;2.80;92.60
7562;DHT22;3822;48.784;9.174;2023-01-26T12:57:51;2.80;92.60
7562;DHT22;3822;48.784;9.174;2023-01-26T13:00:36;2.80;92.60
7562;DHT22;3822;48.784;9.174;2023-01-26T13:03:05;2.80;92.60
7562;DHT22;3822;48.784;9.174;2023-01-26T13:05:56;2.90;92.70
7562;DHT22;3822;48.784;9.174;2023-01-26T13:10:55;2.90;92.60
7562;DHT22;3822;48.784;9.174;2023-01-26T13:13:32;2.80;92.50
7562;DHT22;3822;48.784;9.174;2023-01-26T13:18:49;2.80;92.50
7562;DHT22;3822;48.784;9.174;2023-01-26T13:26:59;3.80;93.00
7562;DHT22;3822;48.784;9.174;2023-01-26T13:34:43;2.80;92.60
7562;DHT22;3822;48.784;9.174;2023-01-26T13:37:18;2.80;92.50
7562;DHT22;3822;48.784;9.174;2023-01-26T13:39:53;2.70;92.50
7562;DHT22;3822;48.784;9.174;2023-01-26T13:42:23;2.80;92.50
7562;DHT22;3822;48.784;9.174;2023-01-26T13:48:02;2.70;92.30
7562;DHT22;3822;48.784;9.174;2023-01-26T13:50:32;2.60;92.40
7562;DHT22;3822;48.784;9.174;2023-01-26T13:53:22;2.60;92.40
7562;DHT22;3822;48.784;9.174;2023-01-26T13:55:58;3.40;92.80
7562;DHT22;3822;48.784;9.174;2023-01-26T13:58:25;2.50;92.50
7562;DHT22;3822;48.784;9.174;2023-01-26T14:01:05;2.60;92.50
7562;DHT22;3822;48.784;9.174;2023-01-26T14:03:36;2.70;92.40
7562;DHT22;3822;48.784;9.174;2023-01-26T14:06:04;2.60;92.40
7562;DHT22;3822;48.784;9.174;2023-01-26T14:08:34;2.70;92.40
7562;DHT22;3822;48.784;9.174;2023-01-26T14:11:02;2.70;92.30
7562;DHT22;3822;48.784;9.174;2023-01-26T14:13:31;2.70;92.30
7562;DHT22;3822;48.784;9.174;2023-01-26T14:16:01;2.80;92.40
7562;DHT22;3822;48.784;9.174;2023-01-26T14:18:28;2.80;92.30
7562;DHT22;3822;48.784;9.174;2023-01-26T14:20:59;2.80;92.30
7562;DHT22;3822;48.784;9.174;2023-01-26T14:23:32;2.80;92.60
7562;DHT22;3822;48.784;9.174;2023-01-26T14:28:44;2.90;92.20
7562;DHT22;3822;48.784;9.174;2023-01-26T14:33:41;2.90;92.30
7562;DHT22;3822;48.784;9.174;2023-01-26T14:36:12;2.90;92.00
7562;DHT22;3822;48.784;9.174;2023-01-26T14:38:46;2.90;92.00
7562;DHT22;3822;48.784;9.174;2023-01-26T14:41:15;2.90;91.90
7562;DHT22;3822;48.784;9.174;2023-01-26T14:43:42;2.90;91.90
7562;DHT22;3822;48.784;9.174;2023-01-26T14:46:19;2.90;92.00
7562;DHT22;3822;48.784;9.174;2023-01-26T14:49:00;2.80;91.90
7562;DHT22;3822;48.784;9.174;2023-01-26T14:51:28;2.90;92.00
7562;DHT22;3822;48.784;9.174;2023-01-26T14:54:00;2.90;92.00
7562;DHT22;3822;48.784;9.174;2023-01-26T14:56:34;2.90;92.00
7562;DHT22;3822;48.784;9.174;2023-01-26T14:59:02;2.90;92.10
7562;DHT22;3822;48.784;9.174;2023-01-26T15:01:30;2.90;92.00
7562;DHT22;3822;48.784;9.174;2023-01-26T15:03:57;2.90;92.00
7562;DHT22;3822;48.784;9.174;2023-01-26T15:06:27;2.90;92.00
7562;DHT22;3822;48.784;9.174;2023-01-26T15:08:58;2.90;92.00
7562;DHT22;3822;48.784;9.174;2023-01-26T15:11:42;2.90;92.10
7562;DHT22;3822;48.784;9.174;2023-01-26T15:16:57;2.90;92.00
7562;DHT22;3822;48.784;9.174;2023-01-26T15:19:24;2.90;91.90
7562;DHT22;3822;48.784;9.174;2023-01-26T15:21:52;2.90;91.90
7562;DHT22;3822;48.784;9.174;2023-01-26T15:24:18;2.80;91.80
7562;DHT22;3822;48.784;9.174;2023-01-26T15:26:44;2.70;91.80
7562;DHT22;3822;48.784;9.174;2023-01-26T15:29:16;4.30;92.60
7562;DHT22;3822;48.784;9.174;2023-01-26T15:31:52;2.50;92.00
7562;DHT22;3822;48.784;9.174;2023-01-26T15:34:35;2.50;92.00
7562;DHT22;3822;48.784;9.174;2023-01-26T15:37:23;2.50;92.10
7562;DHT22;3822;48.784;9.174;2023-01-26T15:39:59;2.50;92.10
7562;DHT22;3822;48.784;9.174;2023-01-26T15:42:26;2.50;92.10
7562;DHT22;3822;48.784;9.174;2023-01-26T15:44:53;2.50;92.20
7562;DHT22;3822;48.784;9.174;2023-01-26T15:47:20;2.50;92.20
7562;DHT22;3822;48.784;9.174;2023-01-26T15:49:46;2.60;92.20
7562;DHT22;3822;48.784;9.174;2023-01-26T15:52:13;2.60;92.30
7562;DHT22;3822;48.784;9.174;2023-01-26T15:54:40;2.70;92.30
7562;DHT22;3822;48.784;9.174;2023-01-26T15:57:08;2.80;92.30
7562;DHT22;3822;48.784;9.174;2023-01-26T15:59:35;2.80;92.30
7562;DHT22;3822;48.784;9.174;2023-01-26T16:02:02;2.80;92.30
7562;DHT22;3822;48.784;9.174;2023-01-26T16:04:29;2.90;92.30
7562;DHT22;3822;48.784;9.174;2023-01-26T16:06:55;2.90;92.30
7562;DHT22;3822;48.784;9.174;2023-01-26T16:09:21;2.80;92.20
7562;DHT22;3822;48.784;9.174;2023-01-26T16:11:50;2.80;92.30
7562;DHT22;3822;48.784;9.174;2023-01-26T16:14:16;2.70;92.20
7562;DHT22;3822;48.784;9.174;2023-01-26T16:16:43;2.80;92.30
7562;DHT22;3822;48.784;9.174;2023-01-26T16:19:10;2.80;92.40
7562;DHT22;3822;48.784;9.174;2023-01-26T16:21:36;2.90;92.40
7562;DHT22;3822;48.784;9.174;2023-01-26T16:24:05;2.90;92.30
7562;DHT22;3822;48.784;9.174;2023-01-26T16:26:31;2.90;92.30
7562;DHT22;3822;48.784;9.174;2023-01-26T16:28:57;3.00;92.60
7562;DHT22;3822;48.784;9.174;2023-01-26T16:31:26;3.10;92.30
7562;DHT22;3822;48.784;9.174;2023-01-26T16:33:54;3.00;92.20
7562;DHT22;3822;48.784;9.174;2023-01-26T16:36:20;3.00;92.20
7562;DHT22;3822;48.784;9.174;2023-01-26T16:38:47;3.00;92.30
7562;DHT22;3822;48.784;9.174;2023-01-26T16:41:14;3.00;92.30
7562;DHT22;3822;48.784;9.174;2023-01-26T16:43:47;3.00;92.20
7562;DHT22;3822;48.784;9.174;2023-01-26T16:46:13;3.10;92.20
7562;DHT22;3822;48.784;9.174;2023-01-26T16:48:39;3.00;92.20
7562;DHT22;3822;48.784;9.174;2023-01-26T16:51:11;3.10;92.20
7562;DHT22;3822;48.784;9.174;2023-01-26T16:53:40;3.10;92.20
7562;DHT22;3822;48.784;9.174;2023-01-26T16:56:10;3.90;92.50
7562;DHT22;3822;48.784;9.174;2023-01-26T16:58:37;3.00;92.20
7562;DHT22;3822;48.784;9.174;2023-01-26T17:01:04;3.00;92.30
7562;DHT22;3822;48.784;9.174;2023-01-26T17:03:30;2.90;92.30
7562;DHT22;3822;48.784;9.174;2023-01-26T17:05:57;2.90;92.30
7562;DHT22;3822;48.784;9.174;2023-01-26T17:08:43;2.90;92.30
7562;DHT22;3822;48.784;9.174;2023-01-26T17:11:20;2.90;92.40
7562;DHT22;3822;48.784;9.174;2023-01-26T17:13:50;2.80;92.50
7562;DHT22;3822;48.784;9.174;2023-01-26T17:16:18;2.80;92.50
7562;DHT22;3822;48.784;9.174;2023-01-26T17:18:46;2.70;92.60
7562;DHT22;3822;48.784;9.174;2023-01-26T17:21:13;2.70;92.70
7562;DHT22;3822;48.784;9.174;2023-01-26T17:23:42;2.60;92.70
7562;DHT22;3822;48.784;9.174;2023-01-26T17:26:10;2.70;92.90
7562;DHT22;3822;48.784;9.174;2023-01-26T17:28:38;2.70;92.80
7562;DHT22;3822;48.784;9.174;2023-01-26T17:31:08;2.60;92.80
7562;DHT22;3822;48.784;9.174;2023-01-26T17:33:36;2.60;92.90
7562;DHT22;3822;48.784;9.174;2023-01-26T17:36:03;2.50;92.90
7562;DHT22;3822;48.784;9.174;2023-01-26T17:38:31;2.50;92.90
7562;DHT22;3822;48.784;9.174;2023-01-26T17:40:58;2.40;92.90
7562;DHT22;3822;48.784;9.174;2023-01-26T17:43:25;2.40;93.00
7562;DHT22;3822;48.784;9.174;2023-01-26T17:45:59;2.30;93.00
7562;DHT22;3822;48.784;9.174;2023-01-26T17:48:30;2.30;93.00
7562;DHT22;3822;48.784;9.174;2023-01-26T17:50:57;2.30;93.00
7562;DHT22;3822;48.784;9.174;2023-01-26T17:53:23;2.30;93.10
7562;DHT22;3822;48.784;9.174;2023-01-26T17:55:50;2.30;93.10
7562;DHT22;3822;48.784;9.174;2023-01-26T17:58:17;2.20;93.10
7562;DHT22;3822;48.784;9.174;2023-01-26T18:00:43;2.20;93.20
7562;DHT22;3822;48.784;9.174;2023-01-26T18:03:10;2.20;93.20
7562;DHT22;3822;48.784;9.174;2023-01-26T18:05:36;2.20;93.30
7562;DHT22;3822;48.784;9.174;2023-01-26T18:08:03;2.10;93.30